createdAt,value
2023-03-02T00:02:14.571Z,0.70
2023-03-02T00:04:49.376Z,1.48
2023-03-02T00:07:38.208Z,0.70
2023-03-02T00:10:06.784Z,0.57
2023-03-02T00:12:35.760Z,0.20
2023-03-02T00:15:04.029Z,0.47
2023-03-02T00:17:32.247Z,0.45
2023-03-02T00:20:12.209Z,0.47
2023-03-02T00:22:42.051Z,1.73
2023-03-02T00:25:11.710Z,1.45
2023-03-02T00:27:39.980Z,0.80
2023-03-02T00:30:09.185Z,0.30
2023-03-02T00:32:37.495Z,0.73
2023-03-02T00:35:06.404Z,0.50
2023-03-02T00:37:37.080Z,0.38
2023-03-02T00:40:10.532Z,0.32
2023-03-02T00:42:39.166Z,3.15
2023-03-02T00:45:08.094Z,0.80
2023-03-02T00:47:37.660Z,2.60
2023-03-02T00:50:08.149Z,0.82
2023-03-02T00:52:36.611Z,0.63
2023-03-02T00:55:05.086Z,2.05
2023-03-02T00:57:33.367Z,1.50
2023-03-02T01:00:01.696Z,1.38
2023-03-02T01:02:30.140Z,2.15
2023-03-02T01:04:58.450Z,2.75
2023-03-02T01:07:29.128Z,3.22
2023-03-02T01:09:57.386Z,3.63
2023-03-02T01:12:25.617Z,2.92
2023-03-02T01:14:53.876Z,4.18
2023-03-02T01:17:23.690Z,4.50
2023-03-02T01:19:53.186Z,4.45
2023-03-02T01:22:23.238Z,4.88
2023-03-02T01:24:51.664Z,2.63
2023-03-02T01:27:20.353Z,3.75
2023-03-02T01:29:48.799Z,2.00
2023-03-02T01:32:17.100Z,1.98
2023-03-02T01:34:45.452Z,3.53
2023-03-02T01:37:13.691Z,2.90
2023-03-02T01:39:42.031Z,2.35
2023-03-02T01:42:10.302Z,3.78
2023-03-02T01:44:47.271Z,1.60
2023-03-02T01:47:21.613Z,5.07
2023-03-02T01:49:56.878Z,3.58
2023-03-02T01:52:26.249Z,3.88
2023-03-02T01:54:59.719Z,3.30
2023-03-02T01:57:34.055Z,7.70
2023-03-02T02:00:09.369Z,4.13
2023-03-02T02:02:37.912Z,2.33
2023-03-02T02:05:06.343Z,4.60
2023-03-02T02:07:34.594Z,7.07
2023-03-02T02:10:03.674Z,3.03
2023-03-02T02:12:32.068Z,3.58
2023-03-02T02:15:02.237Z,2.50
2023-03-02T02:17:31.613Z,4.63
2023-03-02T02:20:13.518Z,6.00
2023-03-02T02:23:04.535Z,4.75
2023-03-02T02:25:46.429Z,3.47
2023-03-02T02:28:43.219Z,4.30
2023-03-02T02:31:24.688Z,3.85
2023-03-02T02:33:57.833Z,2.85
2023-03-02T02:36:34.226Z,3.45
2023-03-02T02:39:07.078Z,7.07
2023-03-02T02:41:40.718Z,4.68
2023-03-02T02:44:14.152Z,4.10
2023-03-02T02:46:42.428Z,3.38
2023-03-02T02:49:24.949Z,4.38
2023-03-02T02:51:53.481Z,4.32
2023-03-02T02:54:22.200Z,6.65
2023-03-02T02:56:53.207Z,4.32
2023-03-02T02:59:25.351Z,6.13
2023-03-02T03:01:54.033Z,4.25
2023-03-02T03:04:25.729Z,4.15
2023-03-02T03:07:05.682Z,4.93
2023-03-02T03:09:34.239Z,4.53
2023-03-02T03:12:30.183Z,4.35
2023-03-02T03:14:59.601Z,3.95
2023-03-02T03:17:28.167Z,6.55
2023-03-02T03:19:56.664Z,6.60
2023-03-02T03:22:24.883Z,3.55
2023-03-02T03:24:53.119Z,3.95
2023-03-02T03:27:21.325Z,7.28
2023-03-02T03:29:49.690Z,4.85
2023-03-02T03:32:18.635Z,7.13
2023-03-02T03:34:46.989Z,4.30
2023-03-02T03:37:19.902Z,5.13
2023-03-02T03:39:48.499Z,5.03
2023-03-02T03:42:16.960Z,4.80
2023-03-02T03:44:45.283Z,4.40
2023-03-02T03:47:13.671Z,4.07
2023-03-02T03:49:41.892Z,6.80
2023-03-02T03:52:10.223Z,3.70
2023-03-02T03:54:38.471Z,3.67
2023-03-02T03:57:07.154Z,5.07
2023-03-02T03:59:35.362Z,8.90
2023-03-02T04:02:04.214Z,5.63
2023-03-02T04:04:35.970Z,5.97
2023-03-02T04:07:04.249Z,4.85
2023-03-02T04:09:38.700Z,5.50
2023-03-02T04:12:08.222Z,6.57
2023-03-02T04:14:36.796Z,3.33
2023-03-02T04:17:06.351Z,5.78
2023-03-02T04:19:36.350Z,3.50
2023-03-02T04:22:05.396Z,5.03
2023-03-02T04:24:34.077Z,5.65
2023-03-02T04:27:02.414Z,5.57
2023-03-02T04:29:33.070Z,8.00
2023-03-02T04:32:01.613Z,6.07
2023-03-02T04:34:30.132Z,7.25
2023-03-02T04:36:58.511Z,7.50
2023-03-02T04:39:27.045Z,10.10
2023-03-02T04:41:55.351Z,4.82
2023-03-02T04:44:23.611Z,5.75
2023-03-02T04:46:52.277Z,5.47
2023-03-02T04:49:21.119Z,6.20
2023-03-02T04:51:51.683Z,6.28
2023-03-02T04:54:29.044Z,3.90
2023-03-02T04:56:57.508Z,4.85
2023-03-02T04:59:28.566Z,3.83
2023-03-02T05:02:00.020Z,4.53
2023-03-02T05:04:29.525Z,5.53
2023-03-02T05:06:58.283Z,4.93
2023-03-02T05:09:31.672Z,6.07
2023-03-02T05:12:01.944Z,8.30
2023-03-02T05:14:30.673Z,3.97
2023-03-02T05:16:59.275Z,5.60
2023-03-02T05:19:27.660Z,5.75
2023-03-02T05:21:57.272Z,7.07
2023-03-02T05:24:25.563Z,7.85
2023-03-02T05:26:53.746Z,5.80
2023-03-02T05:29:22.175Z,5.72
2023-03-02T05:31:51.564Z,5.75
2023-03-02T05:34:20.141Z,11.98
2023-03-02T05:36:48.406Z,5.65
2023-03-02T05:39:16.689Z,4.82
2023-03-02T05:41:44.950Z,4.60
2023-03-02T05:44:13.463Z,3.80
2023-03-02T05:46:42.044Z,3.28
2023-03-02T05:49:11.419Z,6.05
2023-03-02T05:51:39.674Z,4.97
2023-03-02T05:54:07.878Z,5.63
2023-03-02T05:56:36.233Z,5.60
2023-03-02T05:59:04.493Z,5.75
2023-03-02T06:01:33.236Z,2.53
2023-03-02T06:04:01.816Z,2.67
2023-03-02T06:06:31.706Z,3.88
2023-03-02T06:09:01.142Z,4.97
2023-03-02T06:11:31.077Z,5.13
2023-03-02T06:13:59.323Z,3.92
2023-03-02T06:16:27.634Z,5.00
2023-03-02T06:18:55.853Z,3.88
2023-03-02T06:21:24.060Z,2.42
2023-03-02T06:23:52.294Z,3.75
2023-03-02T06:26:20.584Z,3.28
2023-03-02T06:28:53.218Z,2.63
2023-03-02T06:31:22.665Z,3.33
2023-03-02T06:33:51.425Z,3.70
2023-03-02T06:36:19.712Z,3.63
2023-03-02T06:38:48.071Z,4.40
2023-03-02T06:41:16.696Z,3.28
2023-03-02T06:43:44.874Z,3.15
2023-03-02T06:46:14.202Z,2.45
2023-03-02T06:48:42.488Z,2.20
2023-03-02T06:51:10.791Z,1.83
2023-03-02T06:53:39.384Z,6.03
2023-03-02T06:56:08.418Z,2.25
2023-03-02T06:58:37.601Z,2.13
2023-03-02T07:01:06.110Z,1.83
2023-03-02T07:03:34.679Z,3.78
2023-03-02T07:06:03.853Z,2.28
2023-03-02T07:08:32.314Z,3.47
2023-03-02T07:11:00.765Z,2.35
2023-03-02T07:13:31.797Z,3.22
2023-03-02T07:16:00.041Z,4.22
2023-03-02T07:18:28.279Z,1.77
2023-03-02T07:20:56.479Z,3.10
2023-03-02T07:23:24.731Z,3.22
2023-03-02T07:25:52.936Z,3.38
2023-03-02T07:28:22.603Z,3.67
2023-03-02T07:30:51.608Z,1.83
2023-03-02T07:33:20.461Z,2.35
2023-03-02T07:35:48.722Z,3.53
2023-03-02T07:38:17.260Z,2.78
2023-03-02T07:40:45.969Z,3.65
2023-03-02T07:43:14.195Z,2.95
2023-03-02T07:45:42.416Z,3.65
2023-03-02T07:48:10.799Z,4.00
2023-03-02T07:50:39.553Z,3.40
2023-03-02T07:53:08.010Z,4.15
2023-03-02T07:55:36.278Z,4.72
2023-03-02T07:58:04.499Z,4.03
2023-03-02T08:00:32.732Z,2.65
2023-03-02T08:03:01.034Z,4.28
2023-03-02T08:05:29.288Z,2.58
2023-03-02T08:07:57.487Z,1.60
2023-03-02T08:10:25.809Z,2.90
2023-03-02T08:12:54.055Z,5.15
2023-03-02T08:15:22.426Z,3.75
2023-03-02T08:17:51.037Z,3.10
2023-03-02T08:20:19.536Z,4.13
2023-03-02T08:22:47.796Z,3.85
2023-03-02T08:25:16.103Z,3.05
2023-03-02T08:27:46.881Z,4.72
2023-03-02T08:30:16.076Z,3.75
2023-03-02T08:32:44.529Z,3.25
2023-03-02T08:35:13.691Z,3.30
2023-03-02T08:37:41.912Z,2.78
2023-03-02T08:40:10.816Z,2.92
2023-03-02T08:42:39.095Z,2.25
2023-03-02T08:45:07.957Z,2.42
2023-03-02T08:47:36.189Z,3.90
2023-03-02T08:50:05.099Z,1.58
2023-03-02T08:52:35.796Z,3.70
2023-03-02T08:55:04.365Z,3.60
2023-03-02T08:57:32.710Z,4.00
2023-03-02T09:00:00.938Z,2.22
2023-03-02T09:02:29.155Z,3.72
2023-03-02T09:04:57.444Z,3.97
2023-03-02T09:07:25.654Z,2.85
2023-03-02T09:09:53.861Z,2.30
2023-03-02T09:12:22.059Z,2.65
2023-03-02T09:14:50.766Z,2.00
2023-03-02T09:17:20.987Z,1.58
2023-03-02T09:19:49.631Z,2.97
2023-03-02T09:22:18.419Z,2.20
2023-03-02T09:24:46.835Z,1.33
2023-03-02T09:27:15.033Z,2.47
2023-03-02T09:29:43.580Z,1.98
2023-03-02T09:32:12.657Z,2.10
2023-03-02T09:34:40.875Z,2.22
2023-03-02T09:37:09.076Z,3.72
2023-03-02T09:39:38.787Z,4.97
2023-03-02T09:42:18.881Z,2.33
2023-03-02T09:45:03.024Z,1.98
2023-03-02T09:47:37.191Z,1.63
2023-03-02T09:50:31.452Z,1.60
2023-03-02T09:53:25.692Z,1.13
2023-03-02T09:55:59.901Z,3.67
2023-03-02T09:58:35.974Z,2.70
2023-03-02T10:01:10.973Z,1.30
2023-03-02T10:04:02.578Z,2.75
2023-03-02T10:06:31.193Z,3.00
2023-03-02T10:08:59.648Z,2.33
2023-03-02T10:11:50.253Z,1.48
2023-03-02T10:14:24.998Z,2.28
2023-03-02T10:19:59.193Z,1.65
2023-03-02T10:22:35.707Z,1.63
2023-03-02T10:25:10.146Z,1.27
2023-03-02T10:27:42.881Z,1.52
2023-03-02T10:30:34.913Z,2.25
2023-03-02T10:33:23.318Z,2.72
2023-03-02T10:35:54.454Z,1.67
2023-03-02T10:38:26.252Z,2.00
2023-03-02T10:41:07.854Z,0.77
2023-03-02T10:43:46.529Z,1.27
2023-03-02T10:46:15.584Z,0.73
2023-03-02T10:48:55.100Z,1.35
2023-03-02T10:51:36.114Z,1.15
2023-03-02T10:54:17.812Z,1.45
2023-03-02T10:56:52.930Z,1.65
2023-03-02T10:59:27.026Z,1.90
2023-03-02T11:02:03.434Z,1.05
2023-03-02T11:04:32.743Z,1.88
2023-03-02T11:07:23.121Z,0.82
2023-03-02T11:10:18.310Z,2.08
2023-03-02T11:12:52.524Z,1.30
2023-03-02T11:15:29.019Z,1.85
2023-03-02T11:18:08.555Z,1.58
2023-03-02T11:20:42.216Z,1.38
2023-03-02T11:23:28.734Z,2.08
2023-03-02T11:26:03.094Z,1.50
2023-03-02T11:28:34.018Z,0.65
2023-03-02T11:31:06.575Z,1.52
2023-03-02T11:34:07.862Z,1.63
2023-03-02T11:36:46.541Z,1.02
2023-03-02T11:39:22.777Z,0.60
2023-03-02T11:41:51.554Z,1.65
2023-03-02T11:44:22.465Z,0.85
2023-03-02T11:46:57.560Z,1.95
2023-03-02T11:49:36.998Z,1.35
2023-03-02T11:52:05.438Z,1.70
2023-03-02T11:54:56.106Z,2.05
2023-03-02T11:57:34.659Z,1.10
2023-03-02T12:00:04.896Z,1.35
2023-03-02T12:02:33.079Z,1.10
2023-03-02T12:05:08.048Z,0.65
2023-03-02T12:07:36.728Z,2.20
2023-03-02T12:10:32.215Z,1.05
2023-03-02T12:15:53.630Z,0.85
2023-03-02T12:18:24.616Z,0.85
2023-03-02T12:21:11.190Z,1.33
2023-03-02T12:23:48.334Z,2.17
2023-03-02T12:26:22.417Z,0.80
2023-03-02T12:29:08.838Z,3.17
2023-03-02T12:31:46.287Z,0.75
2023-03-02T12:34:55.398Z,2.65
2023-03-02T12:37:32.955Z,1.35
2023-03-02T12:40:26.488Z,3.05
2023-03-02T12:43:06.903Z,1.63
2023-03-02T12:45:37.940Z,1.23
2023-03-02T12:48:40.840Z,2.70
2023-03-02T12:51:24.622Z,1.15
2023-03-02T12:54:20.102Z,0.75
2023-03-02T12:56:49.437Z,1.27
2023-03-02T12:59:27.355Z,0.63
2023-03-02T13:02:32.527Z,0.65
2023-03-02T13:05:06.738Z,1.75
2023-03-02T13:07:42.222Z,1.63
2023-03-02T13:10:43.935Z,1.08
2023-03-02T13:13:17.764Z,1.05
2023-03-02T13:16:01.363Z,1.30
2023-03-02T13:18:32.883Z,1.25
2023-03-02T13:21:04.041Z,1.20
2023-03-02T13:23:34.463Z,2.75
2023-03-02T13:26:05.066Z,1.85
2023-03-02T13:28:38.840Z,2.70
2023-03-02T13:31:27.437Z,1.13
2023-03-02T13:33:58.118Z,1.17
2023-03-02T13:36:30.797Z,1.38
2023-03-02T13:39:01.358Z,1.73
2023-03-02T13:41:32.441Z,1.52
2023-03-02T13:44:22.846Z,1.30
2023-03-02T13:46:52.243Z,1.65
2023-03-02T13:49:34.881Z,1.40
2023-03-02T13:52:16.817Z,1.70
2023-03-02T13:54:48.885Z,1.95
2023-03-02T13:57:23.120Z,1.83
2023-03-02T13:59:51.722Z,1.38
2023-03-02T14:02:26.246Z,0.82
2023-03-02T14:04:55.244Z,1.17
2023-03-02T14:07:23.916Z,1.08
2023-03-02T14:09:52.147Z,1.05
2023-03-02T14:12:31.860Z,2.60
2023-03-02T14:15:03.135Z,1.48
2023-03-02T14:17:31.712Z,1.63
2023-03-02T14:19:59.997Z,1.20
2023-03-02T14:22:31.012Z,1.77
2023-03-02T14:25:02.122Z,1.02
2023-03-02T14:27:32.041Z,1.08
2023-03-02T14:30:01.015Z,1.40
2023-03-02T14:32:30.080Z,1.38
2023-03-02T14:34:58.972Z,0.82
2023-03-02T14:37:29.941Z,1.00
2023-03-02T14:39:58.534Z,1.27
2023-03-02T14:42:26.744Z,1.58
2023-03-02T14:44:54.937Z,2.05
2023-03-02T14:47:23.136Z,3.63
2023-03-02T14:49:51.681Z,1.95
2023-03-02T14:52:27.852Z,2.92
2023-03-02T14:55:00.489Z,3.42
2023-03-02T14:57:31.172Z,2.78
2023-03-02T15:00:02.203Z,2.70
2023-03-02T15:02:30.544Z,5.65
2023-03-02T15:04:59.077Z,3.70
2023-03-02T15:07:28.956Z,5.25
2023-03-02T15:09:59.117Z,6.53
2023-03-02T15:12:27.501Z,5.00
2023-03-02T15:14:55.693Z,4.22
2023-03-02T15:17:24.218Z,5.57
2023-03-02T15:19:52.600Z,4.70
2023-03-02T15:22:20.819Z,4.82
2023-03-02T15:24:49.100Z,6.80
2023-03-02T15:27:19.261Z,7.72
2023-03-02T15:29:49.388Z,6.93
2023-03-02T15:32:18.164Z,12.30
2023-03-02T15:34:46.523Z,7.60
2023-03-02T15:37:14.756Z,5.78
2023-03-02T15:39:43.487Z,7.20
2023-03-02T15:42:13.499Z,6.88
2023-03-02T15:44:42.277Z,6.45
2023-03-02T15:47:12.100Z,7.13
2023-03-02T15:49:40.403Z,5.20
2023-03-02T15:52:08.653Z,7.28
2023-03-02T15:54:36.836Z,7.47
2023-03-02T15:57:05.142Z,7.10
2023-03-02T15:59:33.546Z,6.28
2023-03-02T16:02:03.126Z,8.57
2023-03-02T16:04:33.601Z,5.40
2023-03-02T16:07:01.899Z,9.77
2023-03-02T16:09:31.763Z,7.03
2023-03-02T16:12:00.113Z,6.03
2023-03-02T16:14:28.473Z,7.07
2023-03-02T16:16:56.779Z,5.90
2023-03-02T16:19:25.113Z,5.57
2023-03-02T16:21:53.375Z,5.35
2023-03-02T16:24:22.095Z,6.22
2023-03-02T16:26:51.756Z,2.92
2023-03-02T16:29:20.043Z,3.50
2023-03-02T16:31:49.232Z,5.55
2023-03-02T16:34:18.407Z,4.80
2023-03-02T16:36:46.726Z,5.05
2023-03-02T16:39:15.711Z,4.20
2023-03-02T16:41:45.228Z,3.90
2023-03-02T16:44:15.411Z,3.85
2023-03-02T16:46:44.314Z,4.22
2023-03-02T16:49:13.554Z,4.60
2023-03-02T16:51:44.239Z,3.42
2023-03-02T16:54:17.359Z,3.20
2023-03-02T16:56:48.045Z,4.05
2023-03-02T16:59:16.951Z,4.50
2023-03-02T17:01:45.298Z,3.45
2023-03-02T17:04:13.731Z,4.38
2023-03-02T17:06:59.759Z,2.90
2023-03-02T17:09:29.110Z,4.40
2023-03-02T17:11:57.740Z,3.80
2023-03-02T17:14:26.193Z,4.10
2023-03-02T17:16:55.065Z,2.78
2023-03-02T17:19:26.996Z,4.90
2023-03-02T17:21:59.049Z,3.33
2023-03-02T17:24:28.764Z,4.90
2023-03-02T17:26:57.709Z,4.03
2023-03-02T17:29:25.973Z,2.03
2023-03-02T17:31:54.339Z,3.53
2023-03-02T17:34:23.105Z,2.53
2023-03-02T17:36:51.533Z,2.75
2023-03-02T17:39:19.760Z,4.93
2023-03-02T17:41:47.998Z,4.10
2023-03-02T17:44:16.452Z,2.40
2023-03-02T17:46:46.455Z,2.50
2023-03-02T17:49:14.804Z,2.88
2023-03-02T17:51:43.089Z,2.47
2023-03-02T17:54:11.371Z,3.95
2023-03-02T17:56:39.639Z,1.95
2023-03-02T17:59:07.952Z,2.10
2023-03-02T18:01:36.671Z,1.67
2023-03-02T18:04:05.722Z,2.88
2023-03-02T18:06:34.652Z,2.63
2023-03-02T18:09:03.130Z,2.45
2023-03-02T18:11:31.398Z,2.90
2023-03-02T18:13:59.952Z,1.23
2023-03-02T18:16:30.104Z,1.45
2023-03-02T18:18:58.635Z,1.80
2023-03-02T18:21:27.235Z,1.52
2023-03-02T18:23:55.872Z,1.45
2023-03-02T18:26:24.193Z,1.42
2023-03-02T18:28:52.500Z,1.05
2023-03-02T18:31:20.927Z,1.95
2023-03-02T18:33:50.549Z,1.95
2023-03-02T18:36:19.116Z,1.30
2023-03-02T18:38:47.506Z,1.00
2023-03-02T18:41:15.957Z,3.03
2023-03-02T18:43:44.465Z,3.50
2023-03-02T18:46:25.083Z,1.30
2023-03-02T18:48:54.866Z,1.25
2023-03-02T18:51:24.937Z,0.60
2023-03-02T18:53:54.247Z,0.70
2023-03-02T18:56:26.341Z,2.95
2023-03-02T18:58:55.359Z,1.77
2023-03-02T19:01:23.867Z,2.22
2023-03-02T19:03:52.307Z,1.10
2023-03-02T19:06:21.430Z,1.15
2023-03-02T19:08:50.454Z,1.35
2023-03-02T19:11:18.839Z,1.80
2023-03-02T19:13:47.542Z,1.55
2023-03-02T19:16:18.127Z,1.75
2023-03-02T19:18:46.637Z,1.23
2023-03-02T19:21:14.933Z,1.45
2023-03-02T19:23:45.500Z,1.67
2023-03-02T19:26:14.714Z,0.85
2023-03-02T19:28:42.952Z,1.30
2023-03-02T19:31:12.251Z,1.85
2023-03-02T19:33:41.791Z,1.27
2023-03-02T19:36:10.473Z,1.23
2023-03-02T19:38:42.322Z,1.35
2023-03-02T19:41:14.005Z,2.35
2023-03-02T19:43:43.525Z,1.70
2023-03-02T19:46:11.804Z,0.50
2023-03-02T19:48:40.083Z,1.80
2023-03-02T19:51:08.918Z,3.63
2023-03-02T19:53:39.633Z,2.15
2023-03-02T19:56:12.542Z,0.70
2023-03-02T19:58:49.060Z,0.90
2023-03-02T20:01:22.347Z,1.60
2023-03-02T20:03:58.958Z,1.02
2023-03-02T20:06:33.098Z,1.52
2023-03-02T20:09:05.115Z,2.30
2023-03-02T20:11:33.692Z,1.98
2023-03-02T20:14:02.970Z,2.03
2023-03-02T20:16:33.577Z,1.50
2023-03-02T20:19:03.402Z,3.10
2023-03-02T20:21:33.562Z,2.05
2023-03-02T20:24:02.360Z,2.58
2023-03-02T20:26:30.718Z,1.35
2023-03-02T20:29:01.116Z,1.08
2023-03-02T20:31:33.062Z,0.98
2023-03-02T20:34:02.592Z,1.33
2023-03-02T20:36:34.291Z,0.70
2023-03-02T20:39:10.151Z,0.70
2023-03-02T20:41:38.504Z,0.90
2023-03-02T20:44:07.834Z,1.10
2023-03-02T20:46:40.494Z,2.05
2023-03-02T20:49:11.740Z,1.00
2023-03-02T20:51:43.194Z,0.90
2023-03-02T20:54:11.493Z,1.15
2023-03-02T20:56:39.716Z,1.55
2023-03-02T20:59:08.210Z,0.90
2023-03-02T21:01:36.639Z,1.13
2023-03-02T21:04:05.121Z,0.90
2023-03-02T21:06:35.330Z,0.80
2023-03-02T21:09:06.049Z,0.65
2023-03-02T21:11:34.955Z,1.25
2023-03-02T21:14:03.747Z,1.15
2023-03-02T21:16:36.934Z,0.63
2023-03-02T21:19:13.212Z,0.60
2023-03-02T21:21:42.539Z,1.58
2023-03-02T21:24:18.914Z,0.45
2023-03-02T21:26:49.134Z,0.60
2023-03-02T21:29:19.058Z,0.80
2023-03-02T21:31:48.899Z,0.85
2023-03-02T21:34:19.777Z,0.80
2023-03-02T21:36:49.040Z,1.00
2023-03-02T21:39:17.783Z,0.68
2023-03-02T21:41:45.968Z,0.70
2023-03-02T21:44:14.227Z,0.55
2023-03-02T21:46:42.652Z,0.95
2023-03-02T21:49:12.223Z,1.48
2023-03-02T21:51:40.745Z,0.95
2023-03-02T21:54:09.978Z,1.02
2023-03-02T21:56:38.501Z,1.05
2023-03-02T21:59:06.844Z,13.82
2023-03-02T22:01:35.480Z,0.50
2023-03-02T22:04:03.855Z,0.50
2023-03-02T22:06:34.802Z,0.55
2023-03-02T22:09:03.632Z,1.02
2023-03-02T22:11:35.897Z,0.30
2023-03-02T22:14:21.281Z,0.40
2023-03-02T22:16:49.674Z,0.40
2023-03-02T22:19:28.054Z,0.75
2023-03-02T22:21:58.439Z,0.52
2023-03-02T22:24:29.646Z,1.15
2023-03-02T22:27:23.211Z,0.40
2023-03-02T22:29:58.563Z,0.90
2023-03-02T22:32:32.134Z,0.55
2023-03-02T22:35:04.437Z,0.60
2023-03-02T22:37:36.273Z,0.90
2023-03-02T22:40:36.846Z,1.25
2023-03-02T22:43:21.625Z,0.40
2023-03-02T22:45:50.320Z,0.95
2023-03-02T22:48:21.367Z,0.55
2023-03-02T22:50:51.083Z,0.63
2023-03-02T22:53:27.358Z,0.80
2023-03-02T22:55:58.853Z,1.88
2023-03-02T22:58:50.143Z,0.70
2023-03-02T23:01:37.380Z,1.23
2023-03-02T23:04:24.791Z,0.55
2023-03-02T23:07:03.784Z,1.00
2023-03-02T23:09:35.374Z,1.23
2023-03-02T23:12:16.552Z,1.67
2023-03-02T23:14:53.474Z,0.77
2023-03-02T23:17:36.854Z,0.77
2023-03-02T23:20:08.134Z,1.85
2023-03-02T23:22:39.912Z,0.85
2023-03-02T23:25:09.626Z,1.55
2023-03-02T23:27:37.944Z,1.52
2023-03-02T23:30:07.348Z,1.60
2023-03-02T23:32:36.925Z,0.65
2023-03-02T23:35:05.452Z,1.35
2023-03-02T23:37:34.056Z,1.17
2023-03-02T23:40:02.326Z,2.25
2023-03-02T23:42:30.582Z,1.92
2023-03-02T23:44:58.945Z,1.40
2023-03-02T23:47:27.172Z,1.67
2023-03-02T23:49:55.421Z,2.28
2023-03-02T23:52:23.683Z,1.58
2023-03-02T23:54:52.302Z,1.55
2023-03-02T23:57:20.908Z,1.75
2023-03-02T23:59:49.138Z,3.05
